createdAt,value
2022-12-19T00:01:42.808Z,78.45
2022-12-19T00:06:45.226Z,77.78
2022-12-19T00:11:47.521Z,77.90
2022-12-19T00:16:49.272Z,78.32
2022-12-19T00:21:51.159Z,78.21
2022-12-19T00:26:52.728Z,77.91
2022-12-19T00:31:54.808Z,78.07
2022-12-19T00:36:56.472Z,78.09
2022-12-19T00:41:58.073Z,78.34
2022-12-19T00:46:59.630Z,78.21
2022-12-19T00:52:01.439Z,78.23
2022-12-19T00:57:05.078Z,78.51
2022-12-19T01:02:06.731Z,78.22
2022-12-19T01:07:10.555Z,78.04
2022-12-19T01:12:30.894Z,78.17
2022-12-19T01:17:43.609Z,78.19
2022-12-19T01:22:47.163Z,78.13
2022-12-19T01:27:48.912Z,77.97
2022-12-19T01:32:50.425Z,78.04
2022-12-19T01:38:03.323Z,78.33
2022-12-19T01:43:14.069Z,78.38
2022-12-19T01:48:16.069Z,78.17
2022-12-19T01:53:19.473Z,77.84
2022-12-19T01:58:21.698Z,78.17
2022-12-19T02:03:31.293Z,78.04
2022-12-19T02:08:32.978Z,78.58
2022-12-19T02:13:36.831Z,78.72
2022-12-19T02:18:44.310Z,78.21
2022-12-19T02:24:04.828Z,78.24
2022-12-19T02:29:36.484Z,78.36
2022-12-19T02:34:53.101Z,78.03
2022-12-19T02:39:58.699Z,78.63
2022-12-19T02:45:02.468Z,78.01
2022-12-19T02:50:05.262Z,78.06
2022-12-19T02:55:09.625Z,78.46
2022-12-19T03:00:17.760Z,78.12
2022-12-19T03:05:38.461Z,78.32
2022-12-19T03:10:45.900Z,78.09
2022-12-19T03:15:49.800Z,78.27
2022-12-19T03:20:51.727Z,78.73
2022-12-19T03:25:55.159Z,78.30
2022-12-19T03:30:58.606Z,78.24
2022-12-19T03:36:03.768Z,78.30
2022-12-19T03:41:07.078Z,78.78
2022-12-19T03:46:15.174Z,79.06
2022-12-19T03:51:29.024Z,79.15
2022-12-19T03:56:30.665Z,79.56
2022-12-19T04:01:34.262Z,79.59
2022-12-19T04:06:36.756Z,79.04
2022-12-19T04:11:47.166Z,79.15
2022-12-19T04:16:57.189Z,79.30
2022-12-19T04:22:07.503Z,79.18
2022-12-19T04:27:09.839Z,79.70
2022-12-19T04:32:11.944Z,79.70
2022-12-19T04:37:13.643Z,80.03
2022-12-19T04:42:15.206Z,79.90
2022-12-19T04:47:16.966Z,79.78
2022-12-19T04:52:18.952Z,80.07
2022-12-19T04:57:20.622Z,80.21
2022-12-19T05:02:22.370Z,79.54
2022-12-19T05:07:24.173Z,80.13
2022-12-19T05:12:25.761Z,80.05
2022-12-19T05:17:27.387Z,80.79
2022-12-19T05:22:29.380Z,80.56
2022-12-19T05:27:30.984Z,79.93
2022-12-19T05:32:33.728Z,80.40
2022-12-19T05:37:35.332Z,80.18
2022-12-19T05:42:37.084Z,80.36
2022-12-19T05:47:38.714Z,80.40
2022-12-19T05:52:40.542Z,79.93
2022-12-19T05:57:42.420Z,79.67
2022-12-19T06:02:44.231Z,79.88
2022-12-19T06:07:46.517Z,79.77
2022-12-19T06:12:48.211Z,80.14
2022-12-19T06:17:53.208Z,81.16
2022-12-19T06:22:55.029Z,82.26
2022-12-19T06:27:56.667Z,81.41
2022-12-19T06:32:58.295Z,80.34
2022-12-19T06:38:01.100Z,79.39
2022-12-19T06:43:02.789Z,79.82
2022-12-19T06:48:04.559Z,79.26
2022-12-19T06:53:06.394Z,79.17
2022-12-19T06:58:08.011Z,78.88
2022-12-19T07:03:11.321Z,78.83
2022-12-19T07:08:12.938Z,78.12
2022-12-19T07:13:14.626Z,77.30
2022-12-19T07:18:16.336Z,77.26
2022-12-19T07:23:19.635Z,77.63
2022-12-19T07:28:21.391Z,78.07
2022-12-19T07:33:22.986Z,77.98
2022-12-19T07:38:24.602Z,78.11
2022-12-19T07:43:26.251Z,78.33
2022-12-19T07:48:28.837Z,79.03
2022-12-19T07:53:32.259Z,78.86
2022-12-19T07:58:33.880Z,78.92
2022-12-19T08:03:35.952Z,79.12
2022-12-19T08:08:37.886Z,78.83
2022-12-19T08:13:46.358Z,79.61
2022-12-19T08:18:48.955Z,79.28
2022-12-19T08:23:50.936Z,79.40
2022-12-19T08:28:56.304Z,79.37
2022-12-19T08:33:58.256Z,79.58
2022-12-19T08:39:00.141Z,79.38
2022-12-19T08:44:02.196Z,79.23
2022-12-19T08:49:04.097Z,79.51
2022-12-19T08:54:07.878Z,79.73
2022-12-19T08:59:15.973Z,79.85
2022-12-19T09:05:57.906Z,79.66
2022-12-19T09:09:46.519Z,79.75
2022-12-19T09:14:48.190Z,79.80
2022-12-19T09:19:49.819Z,79.86
2022-12-19T09:24:51.396Z,79.56
2022-12-19T09:29:52.975Z,79.60
2022-12-19T09:34:54.821Z,79.74
2022-12-19T09:39:58.893Z,79.47
2022-12-19T09:45:01.244Z,79.56
2022-12-19T09:50:03.106Z,79.69
2022-12-19T09:55:11.727Z,79.67
2022-12-19T10:00:19.206Z,80.04
2022-12-19T10:06:33.141Z,79.77
2022-12-19T10:12:46.144Z,79.84
2022-12-19T10:17:23.704Z,79.74
2022-12-19T10:22:27.972Z,79.73
2022-12-19T10:27:29.542Z,79.61
2022-12-19T10:32:55.188Z,79.51
2022-12-19T10:38:07.756Z,79.56
2022-12-19T10:43:32.775Z,79.50
2022-12-19T10:48:35.554Z,79.57
2022-12-19T10:53:37.255Z,79.95
2022-12-19T10:58:42.109Z,79.80
2022-12-19T11:03:46.808Z,79.77
2022-12-19T11:08:48.668Z,79.70
2022-12-19T11:20:30.710Z,79.53
2022-12-19T11:29:25.219Z,79.66
2022-12-19T11:30:45.651Z,79.70
2022-12-19T11:33:14.002Z,79.78
2022-12-19T11:38:20.065Z,79.82
2022-12-19T11:43:52.672Z,79.60
2022-12-19T11:49:05.808Z,79.90
2022-12-19T11:54:15.995Z,79.79
2022-12-19T11:59:20.708Z,79.99
2022-12-19T12:04:37.848Z,80.24
2022-12-19T12:14:53.230Z,79.78
2022-12-19T12:27:34.748Z,79.72
2022-12-19T12:31:21.962Z,79.89
2022-12-19T12:31:57.233Z,79.99
2022-12-19T12:35:48.604Z,80.12
2022-12-19T12:38:30.776Z,80.06
2022-12-19T12:43:46.438Z,80.43
2022-12-19T12:49:05.231Z,80.34
2022-12-19T12:54:12.591Z,80.07
2022-12-19T12:59:27.233Z,79.93
2022-12-19T13:04:35.777Z,79.98
2022-12-19T13:09:37.637Z,80.09
2022-12-19T13:14:39.310Z,79.96
2022-12-19T13:19:56.313Z,80.22
2022-12-19T13:24:59.587Z,80.36
2022-12-19T13:30:01.332Z,80.54
2022-12-19T13:35:32.877Z,80.98
2022-12-19T13:40:51.426Z,81.00
2022-12-19T13:46:01.216Z,80.92
2022-12-19T13:51:10.721Z,81.03
2022-12-19T13:56:15.220Z,81.15
2022-12-19T14:01:33.319Z,80.96
2022-12-19T14:06:44.608Z,80.69
2022-12-19T14:13:37.512Z,80.76
2022-12-19T14:17:21.183Z,80.35
2022-12-19T14:22:26.925Z,80.08
2022-12-19T14:28:26.483Z,80.17
2022-12-19T14:33:43.767Z,80.35
2022-12-19T14:39:20.322Z,80.68
2022-12-19T14:52:26.128Z,80.26
2022-12-19T14:54:11.539Z,80.56
2022-12-19T14:56:19.742Z,80.95
2022-12-19T15:01:09.070Z,81.05
2022-12-19T15:07:05.792Z,81.15
2022-12-19T15:14:04.075Z,81.36
2022-12-19T15:17:45.192Z,81.36
2022-12-19T15:22:47.346Z,81.40
2022-12-19T15:27:48.986Z,81.45
2022-12-19T15:32:50.727Z,81.33
2022-12-19T15:37:52.979Z,81.39
2022-12-19T15:42:57.286Z,81.46
2022-12-19T15:47:59.445Z,81.61
2022-12-19T15:53:34.526Z,81.56
2022-12-19T15:58:41.910Z,81.66
2022-12-19T16:03:43.790Z,82.03
2022-12-19T16:08:45.781Z,81.87
2022-12-19T16:13:52.564Z,82.03
2022-12-19T16:18:54.302Z,82.30
2022-12-19T16:23:55.992Z,82.17
2022-12-19T16:28:58.021Z,81.99
2022-12-19T16:34:00.341Z,82.10
2022-12-19T16:39:02.000Z,81.80
2022-12-19T16:44:18.762Z,82.11
2022-12-19T16:49:24.974Z,82.29
2022-12-19T16:54:27.042Z,82.47
2022-12-19T16:59:35.753Z,82.55
2022-12-19T17:04:41.837Z,82.59
2022-12-19T17:09:44.462Z,82.60
2022-12-19T17:14:46.309Z,82.97
2022-12-19T17:19:48.073Z,83.11
2022-12-19T17:24:49.855Z,83.12
2022-12-19T17:29:51.565Z,83.22
2022-12-19T17:34:53.430Z,83.18
2022-12-19T17:39:55.351Z,83.56
2022-12-19T17:44:57.236Z,83.12
2022-12-19T17:49:59.255Z,83.33
2022-12-19T17:55:22.130Z,83.19
2022-12-19T18:00:30.382Z,83.43
2022-12-19T18:05:35.925Z,83.33
2022-12-19T18:10:37.761Z,83.38
2022-12-19T18:15:40.692Z,83.11
2022-12-19T18:20:44.155Z,83.31
2022-12-19T18:25:46.940Z,83.39
2022-12-19T18:30:49.355Z,83.44
2022-12-19T18:35:51.537Z,83.51
2022-12-19T18:40:53.233Z,83.50
2022-12-19T18:45:55.628Z,83.49
2022-12-19T18:50:58.996Z,83.43
2022-12-19T18:56:06.013Z,83.58
2022-12-19T19:01:15.417Z,83.31
2022-12-19T19:06:21.370Z,83.47
2022-12-19T19:11:24.942Z,83.33
2022-12-19T19:16:27.758Z,83.43
2022-12-19T19:21:33.397Z,83.65
2022-12-19T19:26:35.167Z,83.37
2022-12-19T19:31:40.714Z,83.24
2022-12-19T19:36:47.089Z,83.22
2022-12-19T19:41:48.855Z,83.17
2022-12-19T19:46:50.757Z,82.96
2022-12-19T19:51:56.949Z,82.65
2022-12-19T19:57:04.179Z,82.67
2022-12-19T20:02:08.365Z,82.73
2022-12-19T20:07:10.312Z,82.99
2022-12-19T20:12:12.196Z,82.69
2022-12-19T20:17:14.002Z,82.92
2022-12-19T20:22:15.722Z,82.80
2022-12-19T20:27:17.371Z,82.96
2022-12-19T20:32:19.488Z,83.11
2022-12-19T20:37:21.296Z,83.21
2022-12-19T20:42:23.323Z,83.28
2022-12-19T20:47:25.035Z,83.15
2022-12-19T20:52:26.986Z,83.35
2022-12-19T20:57:30.449Z,83.39
2022-12-19T21:02:52.527Z,83.44
2022-12-19T21:07:53.923Z,83.33
2022-12-19T21:12:56.125Z,83.55
2022-12-19T21:17:57.799Z,83.25
2022-12-19T21:22:59.882Z,83.51
2022-12-19T21:28:01.712Z,83.42
2022-12-19T21:33:04.052Z,83.31
2022-12-19T21:38:05.756Z,83.51
2022-12-19T21:43:11.741Z,83.62
2022-12-19T21:48:14.212Z,83.45
2022-12-19T21:53:15.909Z,83.84
2022-12-19T21:58:17.603Z,83.78
2022-12-19T22:03:19.375Z,83.89
2022-12-19T22:08:21.173Z,83.93
2022-12-19T22:13:23.019Z,84.01
2022-12-19T22:18:27.402Z,83.80
2022-12-19T22:23:29.175Z,84.07
2022-12-19T22:28:34.256Z,84.39
2022-12-19T22:33:35.967Z,84.34
2022-12-19T22:38:46.284Z,84.42
2022-12-19T22:43:48.355Z,84.48
2022-12-19T22:48:50.728Z,84.14
2022-12-19T22:53:52.567Z,84.72
2022-12-19T22:58:56.567Z,84.65
2022-12-19T23:04:00.238Z,84.50
2022-12-19T23:09:03.435Z,84.76
2022-12-19T23:14:07.211Z,84.93
2022-12-19T23:19:09.632Z,84.93
2022-12-19T23:24:11.713Z,84.71
2022-12-19T23:29:14.904Z,85.13
2022-12-19T23:34:17.324Z,85.17
2022-12-19T23:39:19.021Z,85.22
2022-12-19T23:44:20.718Z,85.31
2022-12-19T23:49:22.389Z,85.03
2022-12-19T23:54:24.221Z,85.13
2022-12-19T23:59:26.485Z,85.03
